Time;durP1;ratioP1;P1;durP2;ratioP2;P2;SDS_P1;SDS_P2;PMS_P1;PMS_P2;Temp;Humidity;BMP_temperature;BMP_pressure;BME280_temperature;BME280_humidity;BME280_pressure;Samples;Min_cycle;Max_cycle;Signal;HPM_P1;HPM_P2
2022/01/02 00:00:07;;;;;;;;;15.50;13.75;;;;;;;;5043302;28;9802;-84
2022/01/02 00:02:36;;;;;;;;;16.50;16.50;;;;;;;;5039249;28;9710;-81
2022/01/02 00:05:05;;;;;;;;;15.50;13.75;;;;;;;;5042760;28;9779;-81
2022/01/02 00:07:36;;;;;;;;;15.00;15.00;;;;;;;;5044573;28;9620;-85
2022/01/02 00:10:07;;;;;;;;;15.50;14.00;;;;;;;;5040798;28;10416;-82
2022/01/02 00:12:35;;;;;;;;;13.00;13.00;;;;;;;;5046967;28;9640;-86
2022/01/02 00:15:05;;;;;;;;;14.00;12.50;;;;;;;;5044184;28;9689;-83
2022/01/02 00:17:33;;;;;;;;;14.50;14.50;;;;;;;;5036004;28;9721;-85
2022/01/02 00:20:10;;;;;;;;;15.25;15.00;;;;;;;;5038497;28;9645;-85
2022/01/02 00:22:39;;;;;;;;;15.50;14.75;;;;;;;;5035852;28;9907;-85
2022/01/02 00:25:14;;;;;;;;;13.75;13.75;;;;;;;;5039111;28;9808;-84
2022/01/02 00:27:42;;;;;;;;;19.00;17.25;;;;;;;;5034165;28;9822;-84
2022/01/02 00:30:11;;;;;;;;;12.00;12.00;;;;;;;;5038073;28;9803;-79
2022/01/02 00:32:38;;;;;;;;;13.75;13.00;;;;;;;;5040531;28;9787;-86
2022/01/02 00:35:07;;;;;;;;;15.00;15.00;;;;;;;;5038251;28;10574;-87
2022/01/02 00:37:34;;;;;;;;;14.00;13.50;;;;;;;;5039132;28;10542;-82
2022/01/02 00:43:04;;;;;;;;;15.00;15.00;;;;;;;;5028440;28;9939;-80
2022/01/02 00:45:37;;;;;;;;;15.50;13.50;;;;;;;;5043579;28;9813;-81
2022/01/02 00:48:10;;;;;;;;;14.50;12.50;;;;;;;;5042710;28;9885;-79
2022/01/02 00:50:39;;;;;;;;;16.00;14.50;;;;;;;;5043274;28;9821;-78
2022/01/02 00:53:09;;;;;;;;;14.25;13.75;;;;;;;;5034687;28;10641;-78
2022/01/02 00:55:37;;;;;;;;;11.00;11.00;;;;;;;;5044821;28;9937;-78
2022/01/02 00:58:07;;;;;;;;;18.00;16.25;;;;;;;;5042059;28;9881;-83
2022/01/02 01:00:35;;;;;;;;;13.00;11.00;;;;;;;;5032882;28;9958;-81
2022/01/02 01:03:08;;;;;;;;;14.75;14.75;;;;;;;;5035974;28;9874;-79
2022/01/02 01:05:38;;;;;;;;;17.25;16.50;;;;;;;;5042070;28;9932;-79
2022/01/02 01:08:07;;;;;;;;;14.00;14.00;;;;;;;;5045361;28;9883;-83
2022/01/02 01:10:37;;;;;;;;;11.00;11.00;;;;;;;;5042960;28;9886;-84
2022/01/02 01:13:08;;;;;;;;;15.50;13.75;;;;;;;;5031778;28;9888;-81
2022/01/02 01:26:06;;;;;;;;;15.50;14.00;;;;;;;;4997541;28;10785;-77
2022/01/02 01:28:34;;;;;;;;;14.75;14.75;;;;;;;;4995328;28;10010;-80
2022/01/02 01:31:02;;;;;;;;;16.50;14.00;;;;;;;;4997110;28;9767;-81
2022/01/02 01:33:29;;;;;;;;;14.00;14.00;;;;;;;;4977111;28;9958;-78
2022/01/02 01:35:56;;;;;;;;;13.25;13.25;;;;;;;;5000077;28;9890;-83
2022/01/02 01:38:24;;;;;;;;;17.25;16.75;;;;;;;;5002516;28;9809;-83
2022/01/02 01:40:56;;;;;;;;;12.00;12.00;;;;;;;;5000626;28;10738;-80
2022/01/02 01:43:36;;;;;;;;;14.00;14.00;;;;;;;;5001992;28;10043;-81
2022/01/02 01:46:05;;;;;;;;;16.75;15.00;;;;;;;;4987070;28;9801;-78
2022/01/02 01:48:32;;;;;;;;;14.75;13.75;;;;;;;;5000727;28;9901;-79
2022/01/02 01:51:00;;;;;;;;;15.25;14.75;;;;;;;;4999522;28;9709;-77
2022/01/02 01:53:27;;;;;;;;;12.25;12.25;;;;;;;;4994308;28;9741;-83
2022/01/02 01:55:56;;;;;;;;;14.00;14.00;;;;;;;;5020819;28;9721;-83
2022/01/02 01:58:24;;;;;;;;;14.25;12.50;;;;;;;;5041597;28;9784;-78
2022/01/02 02:00:51;;;;;;;;;16.00;16.00;;;;;;;;5038281;28;9677;-84
2022/01/02 02:03:21;;;;;;;;;16.50;13.25;;;;;;;;5037924;28;9689;-82
2022/01/02 02:05:48;;;;;;;;;14.00;14.00;;;;;;;;5039247;28;9637;-78
2022/01/02 02:08:16;;;;;;;;;13.75;13.75;;;;;;;;5038013;28;9725;-83
2022/01/02 02:10:46;;;;;;;;;13.00;11.00;;;;;;;;5043025;28;9634;-82
2022/01/02 02:13:14;;;;;;;;;18.75;14.00;;;;;;;;5043802;28;9618;-79
2022/01/02 02:15:41;;;;;;;;;12.50;12.50;;;;;;;;5037633;28;9781;-79
2022/01/02 02:18:09;;;;;;;;;11.25;11.00;;;;;;;;5040270;28;9624;-81
2022/01/02 02:20:38;;;;;;;;;13.00;11.00;;;;;;;;5040094;28;9594;-83
2022/01/02 02:23:06;;;;;;;;;11.00;10.25;;;;;;;;5036732;28;9743;-80
2022/01/02 02:25:34;;;;;;;;;17.75;15.75;;;;;;;;5037395;28;10302;-81
2022/01/02 02:28:04;;;;;;;;;13.00;13.00;;;;;;;;5042417;28;10430;-80
2022/01/02 02:30:34;;;;;;;;;12.75;11.50;;;;;;;;5028435;28;10558;-82
2022/01/02 02:33:02;;;;;;;;;12.50;12.00;;;;;;;;5027337;28;9809;-82
2022/01/02 02:35:32;;;;;;;;;13.00;10.25;;;;;;;;5034937;28;9603;-80
2022/01/02 02:38:02;;;;;;;;;7.75;7.25;;;;;;;;5041695;28;9492;-81
2022/01/02 02:40:31;;;;;;;;;13.50;12.00;;;;;;;;5039843;28;9633;-84
2022/01/02 02:43:03;;;;;;;;;14.25;14.25;;;;;;;;5040517;28;9654;-81
2022/01/02 02:51:05;;;;;;;;;10.25;8.25;;;;;;;;5040609;28;9542;-83
2022/01/02 02:53:35;;;;;;;;;11.75;11.75;;;;;;;;5046837;28;9675;-81
2022/01/02 02:56:12;;;;;;;;;12.50;12.00;;;;;;;;5033327;28;9816;-79
2022/01/02 02:58:41;;;;;;;;;15.50;13.50;;;;;;;;5044845;28;9785;-79
2022/01/02 03:01:10;;;;;;;;;10.75;9.00;;;;;;;;5044322;28;9657;-82
2022/01/02 03:03:38;;;;;;;;;13.00;11.50;;;;;;;;5043036;28;9800;-82
2022/01/02 03:19:28;;;;;;;;;7.00;6.00;;;;;;;;4986773;28;10502;-83
2022/01/02 03:21:56;;;;;;;;;13.00;13.00;;;;;;;;4973826;28;9810;-79
2022/01/02 03:24:23;;;;;;;;;12.50;12.50;;;;;;;;4978819;28;9776;-77
2022/01/02 03:26:51;;;;;;;;;11.00;9.50;;;;;;;;5033255;28;9886;-79
2022/01/02 03:29:18;;;;;;;;;12.50;11.50;;;;;;;;5045242;28;9726;-81
2022/01/02 03:31:45;;;;;;;;;12.25;12.25;;;;;;;;5045949;28;9581;-83
2022/01/02 03:34:13;;;;;;;;;12.50;12.50;;;;;;;;5038900;28;9850;-84
2022/01/02 03:36:41;;;;;;;;;16.50;13.00;;;;;;;;5040681;28;9706;-82
2022/01/02 03:39:09;;;;;;;;;13.00;10.75;;;;;;;;5042742;28;9747;-81
2022/01/02 03:41:36;;;;;;;;;12.25;12.25;;;;;;;;5045993;28;9534;-84
2022/01/02 03:44:03;;;;;;;;;13.50;11.00;;;;;;;;5041306;28;9583;-82
2022/01/02 03:46:30;;;;;;;;;11.00;11.00;;;;;;;;5043419;28;9740;-80
2022/01/02 03:48:58;;;;;;;;;13.00;13.00;;;;;;;;5044648;28;9498;-84
2022/01/02 03:51:25;;;;;;;;;13.00;13.00;;;;;;;;5042093;28;10363;-83
2022/01/02 03:53:54;;;;;;;;;10.50;10.50;;;;;;;;5045913;28;9473;-79
2022/01/02 03:56:21;;;;;;;;;9.50;9.50;;;;;;;;5045103;28;9672;-79
2022/01/02 03:58:48;;;;;;;;;18.00;12.33;;;;;;;;5044848;28;9432;-80
2022/01/02 04:01:16;;;;;;;;;13.00;13.00;;;;;;;;5040947;28;10187;-80
2022/01/02 04:03:43;;;;;;;;;7.00;7.00;;;;;;;;5045312;28;9493;-85
2022/01/02 04:06:10;;;;;;;;;8.25;7.25;;;;;;;;5040688;28;9491;-85
2022/01/02 04:08:38;;;;;;;;;9.50;9.50;;;;;;;;5040639;28;9546;-82
2022/01/02 04:11:06;;;;;;;;;12.75;10.75;;;;;;;;5042480;28;9560;-78
2022/01/02 04:13:34;;;;;;;;;9.25;9.25;;;;;;;;5042261;28;9511;-77
2022/01/02 04:16:01;;;;;;;;;9.50;9.50;;;;;;;;5043392;28;9572;-81
2022/01/02 04:18:28;;;;;;;;;11.00;11.00;;;;;;;;5039121;28;9575;-80
2022/01/02 04:20:56;;;;;;;;;8.25;8.25;;;;;;;;5044935;28;9651;-85
2022/01/02 04:23:23;;;;;;;;;9.25;9.25;;;;;;;;5043488;28;9540;-78
2022/01/02 04:25:51;;;;;;;;;11.00;11.00;;;;;;;;5035429;28;9838;-77
2022/01/02 04:28:19;;;;;;;;;13.00;10.50;;;;;;;;5043652;28;9645;-84
2022/01/02 04:30:47;;;;;;;;;13.00;11.00;;;;;;;;5039639;28;9450;-82
2022/01/02 04:33:14;;;;;;;;;14.25;12.00;;;;;;;;5035656;28;9640;-79
2022/01/02 04:35:42;;;;;;;;;13.75;13.00;;;;;;;;5043507;28;9637;-77
2022/01/02 04:38:37;;;;;;;;;9.75;8.75;;;;;;;;5044182;28;9502;-82
2022/01/02 04:41:05;;;;;;;;;10.50;8.75;;;;;;;;5036848;28;9548;-79
2022/01/02 04:43:34;;;;;;;;;7.50;7.50;;;;;;;;5045153;28;9744;-84
2022/01/02 04:46:01;;;;;;;;;11.00;11.00;;;;;;;;5033870;28;9581;-79
2022/01/02 04:48:29;;;;;;;;;11.75;9.25;;;;;;;;5041051;28;9593;-83
2022/01/02 04:50:56;;;;;;;;;10.25;8.00;;;;;;;;5040706;28;9569;-85
2022/01/02 04:53:23;;;;;;;;;14.00;11.75;;;;;;;;5037191;28;10303;-85
2022/01/02 04:55:51;;;;;;;;;10.75;9.75;;;;;;;;5043891;28;9651;-78
2022/01/02 04:58:19;;;;;;;;;8.00;8.00;;;;;;;;5043194;28;9722;-85
2022/01/02 05:00:48;;;;;;;;;12.00;10.00;;;;;;;;5043763;28;9506;-81
2022/01/02 05:03:15;;;;;;;;;12.75;10.25;;;;;;;;5038911;28;9584;-78
2022/01/02 05:06:01;;;;;;;;;13.50;12.50;;;;;;;;5074881;27;9647;-80
2022/01/02 05:08:28;;;;;;;;;12.00;9.00;;;;;;;;5077501;28;9853;-79
2022/01/02 05:10:55;;;;;;;;;12.25;11.50;;;;;;;;5083131;28;9590;-81
2022/01/02 05:13:23;;;;;;;;;9.25;9.25;;;;;;;;5099575;28;10483;-85
2022/01/02 05:15:50;;;;;;;;;8.75;8.75;;;;;;;;5085291;28;9711;-80
2022/01/02 05:18:17;;;;;;;;;9.75;8.00;;;;;;;;5089426;28;9583;-77
2022/01/02 05:20:46;;;;;;;;;13.75;11.75;;;;;;;;5076442;28;9498;-81
2022/01/02 05:23:15;;;;;;;;;11.50;10.25;;;;;;;;5079669;28;9491;-80
2022/01/02 05:25:42;;;;;;;;;9.00;7.50;;;;;;;;5082916;28;9432;-78
2022/01/02 05:28:10;;;;;;;;;5.75;5.50;;;;;;;;5094158;28;9471;-80
2022/01/02 05:30:38;;;;;;;;;9.00;9.00;;;;;;;;5083573;27;9461;-81
2022/01/02 05:33:05;;;;;;;;;10.25;10.25;;;;;;;;5058478;28;9472;-80
2022/01/02 05:35:33;;;;;;;;;14.00;13.00;;;;;;;;5063645;28;9503;-83
2022/01/02 05:38:00;;;;;;;;;12.00;9.25;;;;;;;;5063354;28;9602;-85
2022/01/02 05:40:31;;;;;;;;;10.00;8.75;;;;;;;;5074248;28;9507;-86
2022/01/02 05:42:58;;;;;;;;;11.67;11.67;;;;;;;;5063751;28;9709;-78
2022/01/02 05:45:26;;;;;;;;;12.25;12.25;;;;;;;;5063480;28;9364;-82
2022/01/02 05:47:53;;;;;;;;;7.00;7.00;;;;;;;;5059175;28;9558;-82
2022/01/02 05:50:21;;;;;;;;;12.67;10.00;;;;;;;;5060900;28;10229;-84
2022/01/02 05:52:48;;;;;;;;;13.00;10.67;;;;;;;;5058806;28;9555;-82
2022/01/02 05:55:15;;;;;;;;;12.00;12.00;;;;;;;;5052339;28;9659;-78
2022/01/02 05:57:44;;;;;;;;;12.00;9.25;;;;;;;;5056473;28;9562;-83
2022/01/02 06:00:12;;;;;;;;;9.75;8.75;;;;;;;;5055948;28;9556;-80
2022/01/02 06:02:40;;;;;;;;;12.00;12.00;;;;;;;;5067178;28;9398;-77
2022/01/02 06:05:08;;;;;;;;;17.00;13.67;;;;;;;;5087173;28;9394;-80
2022/01/02 06:07:36;;;;;;;;;8.00;8.00;;;;;;;;5071376;28;9402;-78
2022/01/02 06:10:05;;;;;;;;;8.00;8.00;;;;;;;;5077701;28;10133;-79
2022/01/02 06:12:33;;;;;;;;;9.00;9.00;;;;;;;;5078813;28;9413;-82
2022/01/02 06:15:01;;;;;;;;;8.33;8.33;;;;;;;;5059288;28;9404;-81
2022/01/02 06:17:29;;;;;;;;;8.33;8.33;;;;;;;;5069865;28;10043;-80
2022/01/02 06:19:56;;;;;;;;;9.33;7.00;;;;;;;;5075186;28;9267;-79
2022/01/02 06:22:23;;;;;;;;;9.00;9.00;;;;;;;;5067570;28;9346;-82
2022/01/02 06:24:50;;;;;;;;;7.33;7.33;;;;;;;;5065883;28;9368;-82
2022/01/02 06:27:19;;;;;;;;;8.67;8.67;;;;;;;;5072054;28;9867;-81
2022/01/02 06:29:47;;;;;;;;;8.33;8.33;;;;;;;;5067621;28;9411;-84
2022/01/02 06:32:15;;;;;;;;;9.33;8.00;;;;;;;;5074009;28;9172;-80
2022/01/02 06:34:46;;;;;;;;;8.00;8.00;;;;;;;;5065710;28;9410;-82
2022/01/02 06:37:13;;;;;;;;;10.67;9.00;;;;;;;;5075384;28;9262;-80
2022/01/02 06:39:40;;;;;;;;;10.00;10.00;;;;;;;;5066272;28;9385;-81
2022/01/02 06:45:20;;;;;;;;;9.00;9.00;;;;;;;;5038838;28;9367;-83
2022/01/02 06:47:52;;;;;;;;;8.00;8.00;;;;;;;;5045055;28;9331;-80
2022/01/02 06:50:22;;;;;;;;;8.00;8.00;;;;;;;;5068772;28;10082;-80
2022/01/02 06:53:51;;;;;;;;;8.33;8.33;;;;;;;;5050060;28;9221;-82
2022/01/02 06:56:19;;;;;;;;;7.00;7.00;;;;;;;;4985837;28;9356;-79
2022/01/02 06:58:46;;;;;;;;;8.33;8.33;;;;;;;;5082439;28;9280;-79
2022/01/02 07:01:14;;;;;;;;;9.67;9.67;;;;;;;;5066780;28;9435;-79
2022/01/02 07:03:43;;;;;;;;;9.00;9.00;;;;;;;;5072352;28;9379;-79
2022/01/02 07:06:10;;;;;;;;;9.33;7.33;;;;;;;;5067888;28;9325;-80
2022/01/02 07:08:38;;;;;;;;;10.00;10.00;;;;;;;;5063847;28;9313;-78
2022/01/02 07:11:08;;;;;;;;;8.67;8.67;;;;;;;;5077680;28;9259;-83
2022/01/02 07:13:35;;;;;;;;;8.33;8.33;;;;;;;;5192703;22;9182;-80
2022/01/02 07:16:02;;;;;;;;;9.00;9.00;;;;;;;;5015840;28;9269;-81
2022/01/02 07:18:30;;;;;;;;;8.00;8.00;;;;;;;;5015092;28;9286;-76
2022/01/02 07:20:58;;;;;;;;;7.67;7.67;;;;;;;;5017886;28;9280;-81
2022/01/02 07:23:28;;;;;;;;;9.00;9.00;;;;;;;;5023890;28;9225;-77
2022/01/02 07:28:57;;;;;;;;;10.33;8.33;;;;;;;;4980963;28;9334;-80
2022/01/02 07:31:24;;;;;;;;;9.67;9.67;;;;;;;;4982199;28;9257;-81
2022/01/02 07:33:52;;;;;;;;;11.67;10.00;;;;;;;;5024033;28;9238;-79
2022/01/02 07:36:20;;;;;;;;;9.00;9.00;;;;;;;;5021635;28;9205;-79
2022/01/02 07:38:48;;;;;;;;;10.00;8.67;;;;;;;;5023560;28;9199;-81
2022/01/02 07:41:15;;;;;;;;;9.00;9.00;;;;;;;;5023551;28;9220;-80
2022/01/02 07:43:42;;;;;;;;;9.00;7.67;;;;;;;;5021810;28;9094;-81
2022/01/02 07:46:10;;;;;;;;;9.67;9.67;;;;;;;;5018421;28;9023;-80
2022/01/02 07:48:37;;;;;;;;;17.25;17.25;;;;;;;;5022775;28;9302;-82
2022/01/02 07:51:04;;;;;;;;;9.33;9.33;;;;;;;;5013452;28;9418;-76
2022/01/02 07:53:33;;;;;;;;;21.50;21.50;;;;;;;;5021720;28;9299;-75
2022/01/02 07:56:00;;;;;;;;;10.00;10.00;;;;;;;;5018831;28;9538;-76
2022/01/02 07:58:28;;;;;;;;;11.33;9.00;;;;;;;;5022452;28;9295;-76
2022/01/02 08:00:55;;;;;;;;;9.00;9.00;;;;;;;;5016193;28;9019;-75
2022/01/02 08:03:22;;;;;;;;;9.00;7.00;;;;;;;;5018344;28;9170;-76
2022/01/02 08:05:49;;;;;;;;;9.33;9.33;;;;;;;;5019857;28;9109;-76
2022/01/02 08:08:17;;;;;;;;;10.00;10.00;;;;;;;;5022811;28;9102;-75
2022/01/02 08:10:45;;;;;;;;;11.00;9.00;;;;;;;;5020087;28;10133;-75
2022/01/02 08:13:13;;;;;;;;;4.33;4.33;;;;;;;;5022261;28;9282;-75
2022/01/02 08:15:40;;;;;;;;;9.00;9.00;;;;;;;;5023762;28;10110;-73
2022/01/02 08:18:09;;;;;;;;;10.00;8.67;;;;;;;;5016964;28;9583;-76
2022/01/02 08:20:36;;;;;;;;;14.00;13.67;;;;;;;;5018221;28;9425;-76
2022/01/02 08:23:03;;;;;;;;;11.33;11.33;;;;;;;;5017009;28;9260;-76
2022/01/02 08:25:30;;;;;;;;;7.67;7.67;;;;;;;;5017651;28;10310;-78
2022/01/02 08:27:59;;;;;;;;;9.67;9.67;;;;;;;;5022398;28;9398;-74
2022/01/02 08:30:30;;;;;;;;;12.00;9.33;;;;;;;;5015880;28;9246;-76
2022/01/02 08:32:58;;;;;;;;;13.25;13.00;;;;;;;;5023907;28;10211;-76
2022/01/02 08:35:26;;;;;;;;;14.33;13.00;;;;;;;;5021880;28;9512;-76
2022/01/02 08:37:53;;;;;;;;;11.00;10.00;;;;;;;;5023457;28;9338;-76
2022/01/02 08:40:24;;;;;;;;;20.00;20.00;;;;;;;;5023563;28;9482;-77
2022/01/02 08:42:52;;;;;;;;;31.50;27.75;;;;;;;;5023920;28;10358;-76
2022/01/02 08:45:21;;;;;;;;;22.50;22.50;;;;;;;;5022042;28;9855;-76
2022/01/02 08:47:48;;;;;;;;;41.75;37.50;;;;;;;;5022640;28;9793;-77
2022/01/02 08:50:16;;;;;;;;;39.75;36.25;;;;;;;;5022393;28;10610;-76
2022/01/02 08:52:43;;;;;;;;;19.25;19.25;;;;;;;;5020855;28;10461;-76
2022/01/02 08:55:11;;;;;;;;;18.75;17.75;;;;;;;;5023085;28;9629;-76
2022/01/02 08:57:38;;;;;;;;;28.75;25.50;;;;;;;;5021874;28;9445;-76
2022/01/02 09:00:07;;;;;;;;;22.00;22.00;;;;;;;;5024280;28;9830;-75
2022/01/02 09:02:36;;;;;;;;;9.67;9.67;;;;;;;;5021819;28;10482;-77
2022/01/02 09:05:04;;;;;;;;;10.00;10.00;;;;;;;;5025151;28;10274;-76
2022/01/02 09:07:31;;;;;;;;;9.33;9.33;;;;;;;;5022102;28;9400;-76
2022/01/02 09:09:59;;;;;;;;;10.00;9.67;;;;;;;;5022114;28;9359;-77
2022/01/02 09:12:30;;;;;;;;;13.33;9.33;;;;;;;;5022830;28;9511;-76
2022/01/02 09:14:57;;;;;;;;;11.33;11.33;;;;;;;;5024469;28;9278;-76
2022/01/02 09:17:25;;;;;;;;;6.33;6.33;;;;;;;;5022777;28;9289;-75
2022/01/02 09:20:06;;;;;;;;;7.67;7.67;;;;;;;;5025768;28;9274;-77
2022/01/02 09:22:33;;;;;;;;;10.00;8.67;;;;;;;;5023394;28;9303;-76
2022/01/02 09:25:03;;;;;;;;;9.33;8.33;;;;;;;;5025952;28;9163;-75
2022/01/02 09:27:31;;;;;;;;;10.00;8.00;;;;;;;;5021736;28;9150;-76
2022/01/02 09:30:02;;;;;;;;;9.67;7.67;;;;;;;;5019876;28;9026;-75
2022/01/02 09:32:34;;;;;;;;;8.00;8.00;;;;;;;;5021609;28;8904;-75
2022/01/02 09:35:03;;;;;;;;;9.25;7.75;;;;;;;;5021182;28;9773;-77
2022/01/02 09:37:31;;;;;;;;;8.50;7.50;;;;;;;;5021479;28;8872;-75
2022/01/02 09:39:59;;;;;;;;;7.75;7.75;;;;;;;;5023308;28;8880;-75
2022/01/02 09:42:27;;;;;;;;;8.75;8.75;;;;;;;;5019784;28;8896;-75
2022/01/02 09:44:57;;;;;;;;;9.25;8.75;;;;;;;;5022703;28;8896;-76
2022/01/02 09:47:25;;;;;;;;;11.50;10.75;;;;;;;;5024012;28;8860;-77
2022/01/02 09:49:53;;;;;;;;;5.75;5.75;;;;;;;;5024665;28;8871;-76
2022/01/02 09:52:21;;;;;;;;;8.50;8.50;;;;;;;;5028014;28;8868;-76
2022/01/02 09:54:49;;;;;;;;;9.00;8.25;;;;;;;;5025875;28;9495;-77
2022/01/02 09:57:16;;;;;;;;;6.75;6.75;;;;;;;;5029025;28;8860;-77
2022/01/02 09:59:44;;;;;;;;;10.00;6.75;;;;;;;;5023837;28;8979;-76
2022/01/02 10:02:11;;;;;;;;;8.25;5.00;;;;;;;;5017216;28;8927;-79
2022/01/02 10:04:41;;;;;;;;;7.75;7.75;;;;;;;;5014640;28;8947;-79
2022/01/02 10:07:29;;;;;;;;;10.00;8.25;;;;;;;;5023841;28;8899;-76
2022/01/02 10:09:58;;;;;;;;;8.00;8.00;;;;;;;;5019518;28;8872;-77
2022/01/02 10:12:28;;;;;;;;;5.00;5.00;;;;;;;;5014555;28;8902;-80
2022/01/02 10:15:19;;;;;;;;;7.50;5.50;;;;;;;;5020149;28;8962;-76
2022/01/02 10:18:11;;;;;;;;;6.00;6.00;;;;;;;;5023618;28;8929;-76
2022/01/02 10:20:40;;;;;;;;;7.25;7.25;;;;;;;;5006448;28;8876;-76
2022/01/02 10:23:11;;;;;;;;;8.00;8.00;;;;;;;;5020022;28;8867;-76
2022/01/02 10:25:51;;;;;;;;;8.25;4.50;;;;;;;;5024407;28;8863;-77
2022/01/02 10:28:20;;;;;;;;;8.75;5.00;;;;;;;;5021742;28;8982;-77
2022/01/02 10:30:48;;;;;;;;;9.00;9.00;;;;;;;;5022328;28;8800;-77
2022/01/02 10:33:15;;;;;;;;;4.75;4.75;;;;;;;;5023798;28;8898;-76
2022/01/02 10:35:43;;;;;;;;;4.25;4.25;;;;;;;;5024358;28;8882;-76
2022/01/02 10:38:16;;;;;;;;;4.50;4.50;;;;;;;;5023433;28;8872;-74
2022/01/02 10:40:46;;;;;;;;;7.00;4.00;;;;;;;;5023201;28;8878;-76
2022/01/02 10:43:25;;;;;;;;;6.50;5.00;;;;;;;;5021198;28;8915;-73
2022/01/02 10:45:53;;;;;;;;;5.00;5.00;;;;;;;;5023094;28;8860;-74
2022/01/02 10:48:32;;;;;;;;;4.50;4.25;;;;;;;;5023926;28;8896;-75
2022/01/02 10:51:02;;;;;;;;;5.25;5.25;;;;;;;;5023551;28;8848;-74
2022/01/02 10:53:31;;;;;;;;;10.00;10.00;;;;;;;;5025051;28;8878;-75
2022/01/02 10:55:59;;;;;;;;;4.25;3.50;;;;;;;;5021936;28;8876;-77
2022/01/02 10:58:27;;;;;;;;;894.40;712.80;;;;;;;;5023077;28;8859;-75
2022/01/02 11:00:57;;;;;;;;;3444.00;2096.67;;;;;;;;5018405;28;8812;-75
2022/01/02 11:03:25;;;;;;;;;399.25;371.00;;;;;;;;5009009;28;8899;-73
2022/01/02 11:05:59;;;;;;;;;389.17;371.00;;;;;;;;5016504;28;8957;-77
2022/01/02 11:08:29;;;;;;;;;373.00;360.60;;;;;;;;5022947;28;8856;-73
2022/01/02 11:10:58;;;;;;;;;69.40;58.00;;;;;;;;5023769;28;8894;-75
2022/01/02 11:13:26;;;;;;;;;131.50;128.50;;;;;;;;5015926;28;8856;-75
2022/01/02 11:15:54;;;;;;;;;183.00;179.20;;;;;;;;5020452;28;11630;-73
2022/01/02 11:18:22;;;;;;;;;11.00;9.00;;;;;;;;5010867;28;8870;-75
2022/01/02 11:20:49;;;;;;;;;7.00;5.75;;;;;;;;5018059;28;8958;-75
2022/01/02 11:23:23;;;;;;;;;5.00;3.25;;;;;;;;5017675;28;8903;-74
2022/01/02 11:25:53;;;;;;;;;4.75;3.00;;;;;;;;5017490;28;8990;-75
2022/01/02 11:28:35;;;;;;;;;3.00;3.00;;;;;;;;5023189;28;9423;-75
2022/01/02 11:31:04;;;;;;;;;3.50;3.50;;;;;;;;5018004;28;8804;-75
2022/01/02 11:33:33;;;;;;;;;3.00;3.00;;;;;;;;5030225;28;8863;-74
2022/01/02 11:36:02;;;;;;;;;3.50;2.75;;;;;;;;5024146;28;8868;-75
2022/01/02 11:38:44;;;;;;;;;3.00;3.00;;;;;;;;5020983;28;8884;-77
2022/01/02 11:41:16;;;;;;;;;1.50;1.50;;;;;;;;5020447;28;10274;-76
2022/01/02 11:43:57;;;;;;;;;1.00;1.00;;;;;;;;5020073;28;9649;-75
2022/01/02 11:46:34;;;;;;;;;2.00;2.00;;;;;;;;5018971;28;9693;-75
2022/01/02 11:49:28;;;;;;;;;2.00;2.00;;;;;;;;5020454;28;8860;-74
2022/01/02 11:52:07;;;;;;;;;3.00;3.00;;;;;;;;5007655;28;9006;-75
2022/01/02 11:54:51;;;;;;;;;1.50;1.50;;;;;;;;5020543;28;8852;-74
2022/01/02 11:57:54;;;;;;;;;3.75;3.75;;;;;;;;5013389;28;9671;-76
2022/01/02 12:00:37;;;;;;;;;0.75;0.75;;;;;;;;4958089;28;8922;-75
2022/01/02 12:03:05;;;;;;;;;3.00;3.00;;;;;;;;4942178;28;8885;-75
2022/01/02 12:05:33;;;;;;;;;2.00;2.00;;;;;;;;4993571;28;8895;-76
2022/01/02 12:08:01;;;;;;;;;3.00;3.00;;;;;;;;5020224;28;8891;-75
2022/01/02 12:10:32;;;;;;;;;5.50;2.00;;;;;;;;5018886;28;8943;-74
2022/01/02 12:13:20;;;;;;;;;2.00;2.00;;;;;;;;5020679;28;8875;-76
2022/01/02 12:16:08;;;;;;;;;3.00;3.00;;;;;;;;5018630;28;8910;-77
2022/01/02 12:18:41;;;;;;;;;2.75;2.00;;;;;;;;5020402;28;8910;-74
2022/01/02 12:21:14;;;;;;;;;5.00;2.75;;;;;;;;5019505;28;8863;-74
2022/01/02 12:23:54;;;;;;;;;3.00;3.00;;;;;;;;5020314;28;8880;-75
2022/01/02 12:26:27;;;;;;;;;2.75;2.75;;;;;;;;5020336;28;9693;-74
2022/01/02 12:28:57;;;;;;;;;3.00;2.00;;;;;;;;5015981;28;9636;-73
2022/01/02 12:31:31;;;;;;;;;5.00;3.50;;;;;;;;5020944;28;9468;-73
2022/01/02 12:34:06;;;;;;;;;2.00;2.00;;;;;;;;5018328;28;8860;-75
2022/01/02 12:36:34;;;;;;;;;1.00;1.00;;;;;;;;5018476;28;8895;-76
2022/01/02 12:39:03;;;;;;;;;2.00;2.00;;;;;;;;5018423;28;8872;-75
2022/01/02 12:41:32;;;;;;;;;1.00;1.00;;;;;;;;5020466;28;9637;-76
2022/01/02 12:44:01;;;;;;;;;1.75;1.75;;;;;;;;5020577;28;8882;-77
2022/01/02 12:46:49;;;;;;;;;1.25;1.25;;;;;;;;5019358;28;8859;-75
2022/01/02 12:49:17;;;;;;;;;0.50;0.50;;;;;;;;5019508;28;8872;-75
2022/01/02 12:51:47;;;;;;;;;1.00;1.00;;;;;;;;5021714;28;9021;-76
2022/01/02 12:54:16;;;;;;;;;1.50;1.00;;;;;;;;5020208;28;9006;-75
2022/01/02 12:56:45;;;;;;;;;2.75;2.00;;;;;;;;5018359;28;8880;-77
2022/01/02 12:59:28;;;;;;;;;1.50;0.00;;;;;;;;5011564;28;10225;-74
2022/01/02 13:01:59;;;;;;;;;6.00;1.75;;;;;;;;5016173;28;9624;-74
2022/01/02 13:04:29;;;;;;;;;0.50;0.50;;;;;;;;5011710;28;9716;-74
2022/01/02 13:06:59;;;;;;;;;1.00;1.00;;;;;;;;5019561;28;8868;-75
2022/01/02 13:09:29;;;;;;;;;1.00;1.00;;;;;;;;5019539;28;8864;-74
2022/01/02 13:11:57;;;;;;;;;0.50;0.50;;;;;;;;5020709;28;8949;-75
2022/01/02 13:14:42;;;;;;;;;1.00;1.00;;;;;;;;5019869;28;8868;-74
2022/01/02 13:17:15;;;;;;;;;1.00;1.00;;;;;;;;5007919;28;9663;-74
2022/01/02 13:19:46;;;;;;;;;3.00;1.00;;;;;;;;5013842;28;8866;-74
2022/01/02 13:22:19;;;;;;;;;1.00;1.00;;;;;;;;5017807;28;8871;-75
2022/01/02 13:24:46;;;;;;;;;3.75;2.00;;;;;;;;5017844;28;8922;-75
2022/01/02 13:27:14;;;;;;;;;0.75;0.75;;;;;;;;5015073;28;8883;-74
2022/01/02 13:29:42;;;;;;;;;2.00;2.00;;;;;;;;5010596;28;8887;-74
2022/01/02 13:32:16;;;;;;;;;1.75;1.75;;;;;;;;5020958;28;8955;-75
2022/01/02 13:34:44;;;;;;;;;2.00;2.00;;;;;;;;5025357;28;8868;-74
2022/01/02 13:37:12;;;;;;;;;2.25;2.25;;;;;;;;5023333;28;8868;-74
2022/01/02 13:39:46;;;;;;;;;4.75;3.50;;;;;;;;5025041;28;8852;-75
2022/01/02 13:42:15;;;;;;;;;4.00;2.25;;;;;;;;5013520;28;8875;-74
2022/01/02 13:44:44;;;;;;;;;0.50;0.50;;;;;;;;5022034;28;8894;-75
2022/01/02 13:47:13;;;;;;;;;1.75;1.75;;;;;;;;5022735;28;8881;-74
2022/01/02 13:49:45;;;;;;;;;3.00;2.25;;;;;;;;5020591;28;8875;-75
2022/01/02 13:52:14;;;;;;;;;2.00;2.00;;;;;;;;5020869;28;9606;-75
2022/01/02 13:54:41;;;;;;;;;0.25;0.00;;;;;;;;5022102;28;8868;-74
2022/01/02 13:57:10;;;;;;;;;1.00;1.00;;;;;;;;5022775;28;8859;-75
2022/01/02 13:59:38;;;;;;;;;1.25;1.00;;;;;;;;5023941;28;8890;-76
2022/01/02 14:02:05;;;;;;;;;0.25;0.25;;;;;;;;5022418;28;8824;-81
2022/01/02 14:05:00;;;;;;;;;1.00;1.00;;;;;;;;5021581;28;8876;-77
2022/01/02 14:07:32;;;;;;;;;1.00;1.00;;;;;;;;5025949;28;8858;-76
2022/01/02 14:10:02;;;;;;;;;1.50;1.50;;;;;;;;5024446;28;8836;-74
2022/01/02 14:12:33;;;;;;;;;2.75;2.00;;;;;;;;5022974;28;8876;-75
2022/01/02 14:15:14;;;;;;;;;0.75;0.75;;;;;;;;5023684;28;8946;-76
2022/01/02 14:17:46;;;;;;;;;1.00;1.00;;;;;;;;5021856;28;8852;-75
2022/01/02 14:20:17;;;;;;;;;0.00;0.00;;;;;;;;5022717;28;8852;-76
2022/01/02 14:22:46;;;;;;;;;1.00;1.00;;;;;;;;5021088;28;9323;-75
2022/01/02 14:25:15;;;;;;;;;1.75;1.75;;;;;;;;5024317;28;9745;-84
2022/01/02 14:27:46;;;;;;;;;1.75;1.00;;;;;;;;5023122;28;9536;-76
2022/01/02 14:30:14;;;;;;;;;1.00;1.00;;;;;;;;5021909;28;8872;-74
2022/01/02 14:32:41;;;;;;;;;3.50;1.00;;;;;;;;5023722;28;8876;-74
2022/01/02 14:35:10;;;;;;;;;1.50;1.50;;;;;;;;5024469;28;8880;-76
2022/01/02 14:37:39;;;;;;;;;2.00;2.00;;;;;;;;5023897;28;8886;-74
2022/01/02 14:40:08;;;;;;;;;3.25;2.25;;;;;;;;5024200;28;9458;-74
2022/01/02 14:42:36;;;;;;;;;0.50;0.50;;;;;;;;5025620;28;8868;-74
2022/01/02 14:45:04;;;;;;;;;1.25;1.25;;;;;;;;5021429;28;8864;-75
2022/01/02 14:47:33;;;;;;;;;1.00;1.00;;;;;;;;5025074;28;8875;-74
2022/01/02 14:50:03;;;;;;;;;1.00;1.00;;;;;;;;5023558;28;8852;-75
2022/01/02 14:52:32;;;;;;;;;1.25;1.00;;;;;;;;5023067;28;8879;-75
2022/01/02 14:55:01;;;;;;;;;1.00;0.00;;;;;;;;5018311;28;8876;-75
2022/01/02 14:57:29;;;;;;;;;0.25;0.25;;;;;;;;5024138;28;8937;-75
2022/01/02 14:59:58;;;;;;;;;0.00;0.00;;;;;;;;5014450;28;8951;-76
2022/01/02 15:02:25;;;;;;;;;4.50;2.50;;;;;;;;5021836;28;8816;-77
2022/01/02 15:04:53;;;;;;;;;1.00;0.00;;;;;;;;5017323;28;8876;-76
2022/01/02 15:07:20;;;;;;;;;1.00;1.00;;;;;;;;5021967;28;8864;-77
2022/01/02 15:09:47;;;;;;;;;0.00;0.00;;;;;;;;5024520;28;9648;-76
2022/01/02 15:12:16;;;;;;;;;1.00;1.00;;;;;;;;5016415;28;8890;-76
2022/01/02 15:14:43;;;;;;;;;2.25;0.00;;;;;;;;5024433;28;8883;-76
2022/01/02 15:17:10;;;;;;;;;3.75;0.75;;;;;;;;5026068;28;8896;-76
2022/01/02 15:19:38;;;;;;;;;0.75;0.75;;;;;;;;5010877;28;8866;-76
2022/01/02 15:22:06;;;;;;;;;0.00;0.00;;;;;;;;5025301;28;9681;-75
2022/01/02 15:24:33;;;;;;;;;2.00;0.00;;;;;;;;5016726;28;8897;-75
2022/01/02 15:27:01;;;;;;;;;0.00;0.00;;;;;;;;5021853;28;8890;-77
2022/01/02 15:29:29;;;;;;;;;1.00;1.00;;;;;;;;5021021;28;8876;-77
2022/01/02 15:31:57;;;;;;;;;2.75;1.00;;;;;;;;5025709;28;8840;-75
2022/01/02 15:34:25;;;;;;;;;1.00;1.00;;;;;;;;5024486;28;8891;-75
2022/01/02 15:36:52;;;;;;;;;1.00;1.00;;;;;;;;5024582;28;8887;-76